createdAt,value
2018-08-30T00:00:59.268Z,83.92
2018-08-30T00:01:59.220Z,83.48
2018-08-30T00:02:59.232Z,83.78
2018-08-30T00:03:59.201Z,84.12
2018-08-30T00:04:59.180Z,84.12
2018-08-30T00:05:59.212Z,84.03
2018-08-30T00:06:59.183Z,83.98
2018-08-30T00:07:59.183Z,83.98
2018-08-30T00:08:59.143Z,83.07
2018-08-30T00:09:59.143Z,84.12
2018-08-30T00:10:59.129Z,84.69
2018-08-30T00:11:59.225Z,84.23
2018-08-30T00:12:59.108Z,84.09
2018-08-30T00:13:59.124Z,84.09
2018-08-30T00:14:59.093Z,83.98
2018-08-30T00:15:59.088Z,82.71
2018-08-30T00:16:59.111Z,82.87
2018-08-30T00:17:59.048Z,82.91
2018-08-30T00:18:59.050Z,83.01
2018-08-30T00:19:59.037Z,84.03
2018-08-30T00:20:59.024Z,83.92
2018-08-30T00:21:59.041Z,83.32
2018-08-30T00:22:59.052Z,83.68
2018-08-30T00:23:58.972Z,82.78
2018-08-30T00:24:58.961Z,83.07
2018-08-30T00:25:58.967Z,83.68
2018-08-30T00:26:58.941Z,83.78
2018-08-30T00:28:03.863Z,83.88
2018-08-30T00:28:59.000Z,83.64
2018-08-30T00:29:58.932Z,83.58
2018-08-30T00:30:58.896Z,84.19
2018-08-30T00:31:58.913Z,84.29
2018-08-30T00:32:58.874Z,84.49
2018-08-30T00:33:58.901Z,85.10
2018-08-30T00:34:58.914Z,85.19
2018-08-30T00:35:58.874Z,85.30
2018-08-30T00:36:58.862Z,85.19
2018-08-30T00:37:58.850Z,86.21
2018-08-30T00:38:58.820Z,85.60
2018-08-30T00:39:58.807Z,86.00
2018-08-30T00:40:58.861Z,86.15
2018-08-30T00:41:58.796Z,86.45
2018-08-30T00:42:58.788Z,86.99
2018-08-30T00:43:58.764Z,86.49
2018-08-30T00:44:58.746Z,87.40
2018-08-30T00:45:58.745Z,88.17
2018-08-30T00:46:58.791Z,88.10
2018-08-30T00:47:58.720Z,88.26
2018-08-30T00:48:58.715Z,86.69
2018-08-30T00:49:58.746Z,86.75
2018-08-30T00:50:58.679Z,87.76
2018-08-30T00:51:58.678Z,87.86
2018-08-30T00:52:58.708Z,88.51
2018-08-30T00:53:58.656Z,87.70
2018-08-30T00:54:58.678Z,89.01
2018-08-30T00:55:58.651Z,88.51
2018-08-30T00:56:58.629Z,88.51
2018-08-30T00:57:58.610Z,88.71
2018-08-30T00:58:58.651Z,88.41
2018-08-30T00:59:58.577Z,88.41
2018-08-30T01:00:58.589Z,88.92
2018-08-30T01:01:58.589Z,88.85
2018-08-30T01:02:58.580Z,88.92
2018-08-30T01:03:58.612Z,88.92
2018-08-30T01:04:58.589Z,89.22
2018-08-30T01:05:58.517Z,89.12
2018-08-30T01:06:58.520Z,89.42
2018-08-30T01:07:58.491Z,89.22
2018-08-30T01:08:58.512Z,89.42
2018-08-30T01:09:58.492Z,88.92
2018-08-30T01:10:58.518Z,89.01
2018-08-30T01:11:58.452Z,89.01
2018-08-30T01:12:58.457Z,88.21
2018-08-30T01:13:58.438Z,87.81
2018-08-30T01:14:58.426Z,87.60
2018-08-30T01:15:58.433Z,88.51
2018-08-30T01:16:58.459Z,88.01
2018-08-30T01:17:58.401Z,89.07
2018-08-30T01:18:58.398Z,88.01
2018-08-30T01:19:58.357Z,88.10
2018-08-30T01:20:58.362Z,88.01
2018-08-30T01:21:58.352Z,88.01
2018-08-30T01:22:58.388Z,88.21
2018-08-30T01:23:58.336Z,87.60
2018-08-30T01:24:58.335Z,87.81
2018-08-30T01:25:58.326Z,88.10
2018-08-30T01:26:58.294Z,87.60
2018-08-30T01:27:58.282Z,87.13
2018-08-30T01:29:03.179Z,87.54
2018-08-30T01:29:58.243Z,88.15
2018-08-30T01:30:58.252Z,87.95
2018-08-30T01:31:58.247Z,88.35
2018-08-30T01:32:58.212Z,88.15
2018-08-30T01:33:58.212Z,88.45
2018-08-30T01:34:58.251Z,88.45
2018-08-30T01:35:58.198Z,88.39
2018-08-30T01:36:58.172Z,89.06
2018-08-30T01:37:58.187Z,88.85
2018-08-30T01:38:58.207Z,88.85
2018-08-30T01:39:58.140Z,89.16
2018-08-30T01:40:58.232Z,88.75
2018-08-30T01:41:58.119Z,88.96
2018-08-30T01:42:58.122Z,88.85
2018-08-30T01:43:58.093Z,87.74
2018-08-30T01:44:58.190Z,87.84
2018-08-30T01:45:58.095Z,88.04
2018-08-30T01:46:58.109Z,87.84
2018-08-30T01:47:58.056Z,87.95
2018-08-30T01:48:58.095Z,88.04
2018-08-30T01:49:58.058Z,88.25
2018-08-30T01:50:58.009Z,88.25
2018-08-30T01:51:58.030Z,88.15
2018-08-30T01:52:58.071Z,87.38
2018-08-30T01:53:58.022Z,88.29
2018-08-30T01:54:57.988Z,88.19
2018-08-30T01:55:57.975Z,88.29
2018-08-30T01:56:57.955Z,89.10
2018-08-30T01:57:58.021Z,89.00
2018-08-30T01:58:57.940Z,89.20
2018-08-30T01:59:57.941Z,89.00
2018-08-30T02:00:57.934Z,88.49
2018-08-30T02:01:57.900Z,88.85
2018-08-30T02:02:57.891Z,89.20
2018-08-30T02:03:57.915Z,89.06
2018-08-30T02:04:57.908Z,87.95
2018-08-30T02:05:57.872Z,89.06
2018-08-30T02:06:57.884Z,89.16
2018-08-30T02:07:57.861Z,87.84
2018-08-30T02:08:57.822Z,88.04
2018-08-30T02:09:58.240Z,87.64
2018-08-30T02:10:57.807Z,89.06
2018-08-30T02:11:57.809Z,88.35
2018-08-30T02:12:57.793Z,88.45
2018-08-30T02:13:57.816Z,89.16
2018-08-30T02:14:57.761Z,88.85
2018-08-30T02:15:57.840Z,88.35
2018-08-30T02:16:57.765Z,89.00
2018-08-30T02:17:57.753Z,89.00
2018-08-30T02:18:57.717Z,88.59
2018-08-30T02:19:57.733Z,89.10
2018-08-30T02:20:57.711Z,89.20
2018-08-30T02:21:57.717Z,88.79
2018-08-30T02:22:57.686Z,89.20
2018-08-30T02:23:57.667Z,89.56
2018-08-30T02:24:57.680Z,88.75
2018-08-30T02:25:57.652Z,88.96
2018-08-30T02:26:57.644Z,89.06
2018-08-30T02:27:57.682Z,88.75
2018-08-30T02:28:57.626Z,88.90
2018-08-30T02:30:02.493Z,89.06
2018-08-30T02:30:57.600Z,89.06
2018-08-30T02:31:57.578Z,89.16
2018-08-30T02:32:57.569Z,89.81
2018-08-30T02:33:57.615Z,89.66
2018-08-30T02:34:57.586Z,89.66
2018-08-30T02:35:57.535Z,89.16
2018-08-30T02:36:57.533Z,89.06
2018-08-30T02:37:57.553Z,89.91
2018-08-30T02:38:57.559Z,89.40
2018-08-30T02:39:57.538Z,89.50
2018-08-30T02:40:57.501Z,89.81
2018-08-30T02:41:57.516Z,89.40
2018-08-30T02:42:57.549Z,89.20
2018-08-30T02:43:57.452Z,89.00
2018-08-30T02:44:57.456Z,89.81
2018-08-30T02:45:57.463Z,88.79
2018-08-30T02:46:57.439Z,88.49
2018-08-30T02:47:57.411Z,89.16
2018-08-30T02:48:57.481Z,88.29
2018-08-30T02:49:57.384Z,88.39
2018-08-30T02:50:57.383Z,89.00
2018-08-30T02:51:57.415Z,89.06
2018-08-30T02:52:57.397Z,89.20
2018-08-30T02:53:57.353Z,88.75
2018-08-30T02:54:57.362Z,88.59
2018-08-30T02:55:57.349Z,88.29
2018-08-30T02:56:57.346Z,89.10
2018-08-30T02:57:57.347Z,89.10
2018-08-30T02:58:57.412Z,88.39
2018-08-30T02:59:57.299Z,88.90
2018-08-30T03:00:57.264Z,88.90
2018-08-30T03:01:57.273Z,89.10
2018-08-30T03:02:57.267Z,88.19
2018-08-30T03:03:57.308Z,88.39
2018-08-30T03:04:57.235Z,87.88
2018-08-30T03:05:57.222Z,87.99
2018-08-30T03:06:57.220Z,88.90
2018-08-30T03:07:57.210Z,87.64
2018-08-30T03:08:57.189Z,87.84
2018-08-30T03:09:57.259Z,89.16
2018-08-30T03:10:57.188Z,88.25
2018-08-30T03:11:57.155Z,87.95
2018-08-30T03:12:57.134Z,88.15
2018-08-30T03:13:57.132Z,87.95
2018-08-30T03:14:57.145Z,87.54
2018-08-30T03:15:57.174Z,88.15
2018-08-30T03:16:57.115Z,88.25
2018-08-30T03:17:57.091Z,87.84
2018-08-30T03:18:57.090Z,87.54
2018-08-30T03:19:57.062Z,88.15
2018-08-30T03:20:57.112Z,87.88
2018-08-30T03:21:57.063Z,88.09
2018-08-30T03:22:57.052Z,87.99
2018-08-30T03:23:57.047Z,88.25
2018-08-30T03:24:57.029Z,87.44
2018-08-30T03:25:57.014Z,88.15
2018-08-30T03:26:57.039Z,87.08
2018-08-30T03:27:56.976Z,88.39
2018-08-30T03:28:56.977Z,87.28
2018-08-30T03:29:56.965Z,88.09
2018-08-30T03:30:57.122Z,88.29
2018-08-30T03:32:01.831Z,88.19
2018-08-30T03:32:56.966Z,88.49
2018-08-30T03:33:56.976Z,89.30
2018-08-30T03:34:56.909Z,88.49
2018-08-30T03:35:56.904Z,87.79
2018-08-30T03:36:56.895Z,88.09
2018-08-30T03:37:56.904Z,87.18
2018-08-30T03:38:56.899Z,87.08
2018-08-30T03:39:56.921Z,87.64
2018-08-30T03:40:56.836Z,88.15
2018-08-30T03:41:56.913Z,88.04
2018-08-30T03:42:56.834Z,87.04
2018-08-30T03:43:56.935Z,87.13
2018-08-30T03:44:56.858Z,87.13
2018-08-30T03:45:56.823Z,87.44
2018-08-30T03:46:56.824Z,87.24
2018-08-30T03:47:56.769Z,87.04
2018-08-30T03:48:56.751Z,86.93
2018-08-30T03:49:56.752Z,87.24
2018-08-30T03:50:56.792Z,87.54
2018-08-30T03:51:56.742Z,87.04
2018-08-30T03:52:56.715Z,87.13
2018-08-30T03:53:56.723Z,87.74
2018-08-30T03:54:56.709Z,86.93
2018-08-30T03:55:56.691Z,86.63
2018-08-30T03:56:56.750Z,87.44
2018-08-30T03:57:56.671Z,88.25
2018-08-30T03:58:56.657Z,88.35
2018-08-30T03:59:56.672Z,87.54
2018-08-30T04:00:56.617Z,88.45
2018-08-30T04:01:56.612Z,88.19
2018-08-30T04:03:01.565Z,87.74
2018-08-30T04:03:56.602Z,87.88
2018-08-30T04:04:56.609Z,88.39
2018-08-30T04:05:56.600Z,87.88
2018-08-30T04:06:56.554Z,87.58
2018-08-30T04:07:56.557Z,88.19
2018-08-30T04:08:56.586Z,88.49
2018-08-30T04:09:56.523Z,88.74
2018-08-30T04:10:56.517Z,88.19
2018-08-30T04:11:56.516Z,88.02
2018-08-30T04:12:56.517Z,88.02
2018-08-30T04:13:56.534Z,87.88
2018-08-30T04:14:56.507Z,88.59
2018-08-30T04:15:56.458Z,87.88
2018-08-30T04:16:56.466Z,87.28
2018-08-30T04:17:56.441Z,87.99
2018-08-30T04:18:56.456Z,87.99
2018-08-30T04:19:56.443Z,88.45
2018-08-30T04:20:56.436Z,88.39
2018-08-30T04:21:56.457Z,87.99
2018-08-30T04:22:56.412Z,87.99
2018-08-30T04:23:56.394Z,86.98
2018-08-30T04:24:56.373Z,87.99
2018-08-30T04:25:56.355Z,88.29
2018-08-30T04:26:56.388Z,88.19
2018-08-30T04:27:56.324Z,88.19
2018-08-30T04:28:56.314Z,86.98
2018-08-30T04:29:56.333Z,87.99
2018-08-30T04:30:56.291Z,87.58
2018-08-30T04:31:56.324Z,87.48
2018-08-30T04:33:01.201Z,87.28
2018-08-30T04:33:56.285Z,87.24
2018-08-30T04:34:56.250Z,86.53
2018-08-30T04:35:56.244Z,86.43
2018-08-30T04:36:56.238Z,86.13
2018-08-30T04:37:56.224Z,87.34
2018-08-30T04:38:56.219Z,87.04
2018-08-30T04:39:56.223Z,86.83
2018-08-30T04:40:56.202Z,87.44
2018-08-30T04:41:56.180Z,86.73
2018-08-30T04:42:56.156Z,87.04
2018-08-30T04:43:56.145Z,87.64
2018-08-30T04:44:56.170Z,87.24
2018-08-30T04:45:56.142Z,86.63
2018-08-30T04:46:56.123Z,86.53
2018-08-30T04:47:56.168Z,87.24
2018-08-30T04:48:56.097Z,86.53
2018-08-30T04:49:56.098Z,87.04
2018-08-30T04:50:56.103Z,87.04
2018-08-30T04:51:56.089Z,87.04
2018-08-30T04:52:56.051Z,87.13
2018-08-30T04:53:56.051Z,86.83
2018-08-30T04:54:56.056Z,86.53
2018-08-30T04:55:56.027Z,86.53
2018-08-30T04:56:56.054Z,86.22
2018-08-30T04:57:56.012Z,86.39
2018-08-30T04:58:56.011Z,86.73
2018-08-30T04:59:56.010Z,86.33
2018-08-30T05:00:55.985Z,86.73
2018-08-30T05:01:55.984Z,86.73
2018-08-30T05:02:55.984Z,86.53
2018-08-30T05:03:55.943Z,86.02
2018-08-30T05:04:55.924Z,86.33
2018-08-30T05:05:55.923Z,86.73
2018-08-30T05:06:55.928Z,85.82
2018-08-30T05:07:55.908Z,86.22
2018-08-30T05:08:55.941Z,86.63
2018-08-30T05:09:55.930Z,86.08
2018-08-30T05:10:55.858Z,85.62
2018-08-30T05:11:55.857Z,86.53
2018-08-30T05:12:55.855Z,86.83
2018-08-30T05:13:55.827Z,86.63
2018-08-30T05:14:55.847Z,86.63
2018-08-30T05:15:55.828Z,86.73
2018-08-30T05:16:55.795Z,86.43
2018-08-30T05:17:55.784Z,85.42
2018-08-30T05:18:55.778Z,86.43
2018-08-30T05:19:55.785Z,85.99
2018-08-30T05:20:55.778Z,86.08
2018-08-30T05:21:55.763Z,85.88
2018-08-30T05:22:55.759Z,85.88
2018-08-30T05:23:55.719Z,86.39
2018-08-30T05:24:55.704Z,86.08
2018-08-30T05:25:55.713Z,85.99
2018-08-30T05:26:55.701Z,85.99
2018-08-30T05:27:55.678Z,86.08
2018-08-30T05:28:55.671Z,86.08
2018-08-30T05:29:55.817Z,86.08
2018-08-30T05:30:55.650Z,86.59
2018-08-30T05:31:55.940Z,86.08
2018-08-30T05:32:55.626Z,85.99
2018-08-30T05:34:00.474Z,84.87
2018-08-30T05:34:55.620Z,84.87
2018-08-30T05:35:55.601Z,85.28
2018-08-30T05:36:55.587Z,85.28
2018-08-30T05:37:55.607Z,85.28
2018-08-30T05:38:55.557Z,86.08
2018-08-30T05:39:55.670Z,85.28
2018-08-30T05:40:55.562Z,84.87
2018-08-30T05:41:55.533Z,84.87
2018-08-30T05:42:55.533Z,84.77
2018-08-30T05:43:55.550Z,85.28
2018-08-30T05:44:55.506Z,84.57
2018-08-30T05:45:55.495Z,86.08
2018-08-30T05:46:55.468Z,85.28
2018-08-30T05:47:55.453Z,84.57
2018-08-30T05:48:55.463Z,85.48
2018-08-30T05:49:55.539Z,85.28
2018-08-30T05:50:55.462Z,85.48
2018-08-30T05:51:55.430Z,84.77
2018-08-30T05:52:55.416Z,84.47
2018-08-30T05:53:55.384Z,84.47
2018-08-30T05:54:55.400Z,84.67
2018-08-30T05:55:55.408Z,83.66
2018-08-30T05:56:55.506Z,84.97
2018-08-30T05:57:55.399Z,84.27
2018-08-30T05:58:55.336Z,84.47
2018-08-30T05:59:55.331Z,84.67
2018-08-30T06:00:55.316Z,83.72
2018-08-30T06:01:55.321Z,84.73
2018-08-30T06:02:55.305Z,84.73
2018-08-30T06:03:55.296Z,84.87
2018-08-30T06:04:55.299Z,84.63
2018-08-30T06:05:55.264Z,83.86
2018-08-30T06:06:55.247Z,84.73
2018-08-30T06:07:55.279Z,84.93
2018-08-30T06:08:55.262Z,84.03
2018-08-30T06:09:55.249Z,84.83
2018-08-30T06:10:55.224Z,84.73
2018-08-30T06:11:55.297Z,84.33
2018-08-30T06:12:55.229Z,84.93
2018-08-30T06:13:55.199Z,84.73
2018-08-30T06:14:55.180Z,85.14
2018-08-30T06:15:55.152Z,84.73
2018-08-30T06:16:55.171Z,84.23
2018-08-30T06:17:55.150Z,82.71
2018-08-30T06:18:55.141Z,82.81
2018-08-30T06:19:55.142Z,84.12
2018-08-30T06:20:55.100Z,84.19
2018-08-30T06:21:55.093Z,83.82
2018-08-30T06:22:55.075Z,83.62
2018-08-30T06:23:55.067Z,84.53
2018-08-30T06:24:55.083Z,83.68
2018-08-30T06:25:55.082Z,83.32
2018-08-30T06:26:55.156Z,82.98
2018-08-30T06:27:55.008Z,83.12
2018-08-30T06:28:55.033Z,82.91
2018-08-30T06:29:55.015Z,84.12
2018-08-30T06:30:55.024Z,84.03
2018-08-30T06:31:54.975Z,83.01
2018-08-30T06:32:55.027Z,83.32
2018-08-30T06:33:54.987Z,82.31
2018-08-30T06:35:00.866Z,83.12
2018-08-30T06:35:54.930Z,82.91
2018-08-30T06:36:54.966Z,83.01
2018-08-30T06:37:54.945Z,82.81
2018-08-30T06:38:54.892Z,83.07
2018-08-30T06:39:54.962Z,83.88
2018-08-30T06:40:55.247Z,83.07
2018-08-30T06:41:54.922Z,82.57
2018-08-30T06:42:55.197Z,82.87
2018-08-30T06:43:54.867Z,82.98
2018-08-30T06:44:54.945Z,82.87
2018-08-30T06:45:54.875Z,84.09
2018-08-30T06:46:54.824Z,82.78
2018-08-30T06:47:54.813Z,82.67
2018-08-30T06:48:54.883Z,83.07
2018-08-30T06:49:54.790Z,83.07
2018-08-30T06:50:54.761Z,82.87
2018-08-30T06:51:54.762Z,82.07
2018-08-30T06:52:54.773Z,82.67
2018-08-30T06:53:54.777Z,82.37
2018-08-30T06:54:54.742Z,82.78
2018-08-30T06:55:54.723Z,83.18
2018-08-30T06:56:55.147Z,82.57
2018-08-30T06:57:54.682Z,82.37
2018-08-30T06:58:54.832Z,82.87
2018-08-30T06:59:54.699Z,82.27
2018-08-30T07:00:54.788Z,83.07
2018-08-30T07:01:54.650Z,81.96
2018-08-30T07:02:54.623Z,83.07
2018-08-30T07:03:54.632Z,82.17
2018-08-30T07:04:54.611Z,83.18
2018-08-30T07:05:55.451Z,82.37
2018-08-30T07:06:54.646Z,82.27
2018-08-30T07:07:54.600Z,82.27
2018-08-30T07:08:54.565Z,82.07
2018-08-30T07:09:54.579Z,82.03
2018-08-30T07:10:54.554Z,81.52
2018-08-30T07:11:54.531Z,82.23
2018-08-30T07:12:54.550Z,82.23
2018-08-30T07:13:54.555Z,81.32
2018-08-30T07:14:54.552Z,81.93
2018-08-30T07:15:54.516Z,81.73
2018-08-30T07:16:54.471Z,81.42
2018-08-30T07:17:54.468Z,81.73
2018-08-30T07:18:54.497Z,82.33
2018-08-30T07:19:54.513Z,82.23
2018-08-30T07:20:54.450Z,81.76
2018-08-30T07:21:56.607Z,81.93
2018-08-30T07:22:54.445Z,81.46
2018-08-30T07:23:57.177Z,82.78
2018-08-30T07:24:54.675Z,82.33
2018-08-30T07:25:54.384Z,83.04
2018-08-30T07:26:54.381Z,81.73
2018-08-30T07:27:54.368Z,82.07
2018-08-30T07:28:54.401Z,82.27
2018-08-30T07:29:54.406Z,82.43
2018-08-30T07:30:54.486Z,83.07
2018-08-30T07:31:54.636Z,83.07
2018-08-30T07:32:54.314Z,82.93
2018-08-30T07:33:56.832Z,82.98
2018-08-30T07:34:54.392Z,82.98
2018-08-30T07:35:59.199Z,83.68
2018-08-30T07:36:54.280Z,83.68
2018-08-30T07:37:54.262Z,84.59
2018-08-30T07:38:54.259Z,83.52
2018-08-30T07:39:54.258Z,84.53
2018-08-30T07:40:54.225Z,84.63
2018-08-30T07:41:54.210Z,84.73
2018-08-30T07:42:54.231Z,85.44
2018-08-30T07:43:54.180Z,84.83
2018-08-30T07:44:54.191Z,84.83
2018-08-30T07:45:54.162Z,84.93
2018-08-30T07:46:54.185Z,84.93
2018-08-30T07:47:54.155Z,85.03
2018-08-30T07:48:54.162Z,84.63
2018-08-30T07:49:54.141Z,85.14
2018-08-30T07:50:54.181Z,85.24
2018-08-30T07:51:54.125Z,85.03
2018-08-30T07:52:54.189Z,85.24
2018-08-30T07:53:54.064Z,84.93
2018-08-30T07:54:54.093Z,85.34
2018-08-30T07:55:54.048Z,85.14
2018-08-30T07:56:54.171Z,85.03
2018-08-30T07:57:54.040Z,85.34
2018-08-30T07:58:54.012Z,85.24
2018-08-30T07:59:54.589Z,84.73
2018-08-30T08:00:54.052Z,84.93
2018-08-30T08:01:54.003Z,84.53
2018-08-30T08:02:53.967Z,85.03
2018-08-30T08:03:54.018Z,84.39
2018-08-30T08:04:53.957Z,84.53
2018-08-30T08:05:53.970Z,84.49
2018-08-30T08:06:53.950Z,84.69
2018-08-30T08:07:53.909Z,84.79
2018-08-30T08:08:53.918Z,84.89
2018-08-30T08:09:53.921Z,83.68
2018-08-30T08:10:53.954Z,83.68
2018-08-30T08:11:53.928Z,83.98
2018-08-30T08:12:53.903Z,84.09
2018-08-30T08:13:53.850Z,83.98
2018-08-30T08:14:53.854Z,84.69
2018-08-30T08:15:53.840Z,84.39
2018-08-30T08:16:53.839Z,84.45
2018-08-30T08:17:53.827Z,84.19
2018-08-30T08:18:53.828Z,84.65
2018-08-30T08:19:53.831Z,83.95
2018-08-30T08:20:53.765Z,83.70
2018-08-30T08:21:53.757Z,83.30
2018-08-30T08:22:53.754Z,82.90
2018-08-30T08:23:53.745Z,82.39
2018-08-30T08:24:53.769Z,82.76
2018-08-30T08:25:53.710Z,83.16
2018-08-30T08:26:53.703Z,83.06
2018-08-30T08:27:53.694Z,81.24
2018-08-30T08:28:53.683Z,81.51
2018-08-30T08:29:53.683Z,80.50
2018-08-30T08:30:53.676Z,80.40
2018-08-30T08:31:53.658Z,81.51
2018-08-30T08:32:53.644Z,81.30
2018-08-30T08:33:53.621Z,82.31
2018-08-30T08:34:53.636Z,81.21
2018-08-30T08:35:53.627Z,81.91
2018-08-30T08:36:58.540Z,81.51
2018-08-30T08:37:53.625Z,80.30
2018-08-30T08:38:53.583Z,80.70
2018-08-30T08:39:53.559Z,80.50
2018-08-30T08:40:53.561Z,81.21
2018-08-30T08:41:53.571Z,81.10
2018-08-30T08:42:53.871Z,81.10
2018-08-30T08:43:53.533Z,80.50
2018-08-30T08:44:53.528Z,79.80
2018-08-30T08:45:53.504Z,80.30
2018-08-30T08:46:53.492Z,79.69
2018-08-30T08:47:53.589Z,79.49
2018-08-30T08:48:53.491Z,78.61
2018-08-30T08:49:53.464Z,77.70
2018-08-30T08:50:53.455Z,76.30
2018-08-30T08:51:53.458Z,76.97
2018-08-30T08:52:53.421Z,76.46
2018-08-30T08:53:53.520Z,75.32
2018-08-30T08:54:53.454Z,74.41
2018-08-30T08:55:53.383Z,73.71
2018-08-30T08:56:53.454Z,74.72
2018-08-30T08:57:53.384Z,72.94
2018-08-30T08:58:53.590Z,74.95
2018-08-30T08:59:53.348Z,74.52
2018-08-30T09:00:53.432Z,74.65
2018-08-30T09:01:53.327Z,75.15
2018-08-30T09:02:53.344Z,75.46
2018-08-30T09:03:53.305Z,74.95
2018-08-30T09:04:53.313Z,74.95
2018-08-30T09:05:53.321Z,75.26
2018-08-30T09:06:53.319Z,73.91
2018-08-30T09:07:53.283Z,73.21
2018-08-30T09:08:53.255Z,73.18
2018-08-30T09:09:53.235Z,71.03
2018-08-30T09:10:53.227Z,71.43
2018-08-30T09:11:53.371Z,70.73
2018-08-30T09:12:53.252Z,69.49
2018-08-30T09:13:53.190Z,70.19
2018-08-30T09:14:53.187Z,68.85
2018-08-30T09:15:53.198Z,69.76
2018-08-30T09:16:53.157Z,69.56
2018-08-30T09:17:53.181Z,69.32
2018-08-30T09:18:53.165Z,69.35
2018-08-30T09:19:53.155Z,70.12
2018-08-30T09:20:53.134Z,68.02
2018-08-30T09:21:53.105Z,69.02
2018-08-30T09:22:53.142Z,67.92
2018-08-30T09:23:54.908Z,68.42
2018-08-30T09:24:53.088Z,68.95
2018-08-30T09:25:53.078Z,68.15
2018-08-30T09:26:53.228Z,68.88
2018-08-30T09:27:53.061Z,69.59
2018-08-30T09:28:53.049Z,68.99
2018-08-30T09:29:53.390Z,69.39
2018-08-30T09:30:53.078Z,69.32
2018-08-30T09:31:53.196Z,68.62
2018-08-30T09:32:53.012Z,68.41
2018-08-30T09:33:53.172Z,69.62
2018-08-30T09:34:53.001Z,71.16
2018-08-30T09:35:52.996Z,68.15
2018-08-30T09:36:52.948Z,68.35
2018-08-30T09:37:57.885Z,67.38
2018-08-30T09:38:52.985Z,68.18
2018-08-30T09:39:53.309Z,68.38
2018-08-30T09:40:52.957Z,69.79
2018-08-30T09:41:53.003Z,69.45
2018-08-30T09:42:52.893Z,67.35
2018-08-30T09:43:52.929Z,67.01
2018-08-30T09:44:53.116Z,66.58
2018-08-30T09:45:52.852Z,66.14
2018-08-30T09:46:52.860Z,66.24
2018-08-30T09:47:52.878Z,66.52
2018-08-30T09:48:52.816Z,65.41
2018-08-30T09:49:53.045Z,65.41
2018-08-30T09:50:52.820Z,65.58
2018-08-30T09:51:52.810Z,64.98
2018-08-30T09:52:52.807Z,64.07
2018-08-30T09:53:52.827Z,62.94
2018-08-30T09:54:52.770Z,64.15
2018-08-30T09:55:52.785Z,62.84
2018-08-30T09:56:52.843Z,59.83
2018-08-30T09:57:52.719Z,61.64
2018-08-30T09:58:52.715Z,61.21
2018-08-30T09:59:52.826Z,61.21
2018-08-30T10:00:52.728Z,61.38
2018-08-30T10:01:53.920Z,61.98
2018-08-30T10:02:52.684Z,62.41
2018-08-30T10:03:52.681Z,62.21
2018-08-30T10:04:52.649Z,61.64
2018-08-30T10:05:53.132Z,61.97
2018-08-30T10:06:52.642Z,61.74
2018-08-30T10:07:52.631Z,61.74
2018-08-30T10:08:52.639Z,61.31
2018-08-30T10:09:52.796Z,60.81
2018-08-30T10:10:53.393Z,61.71
2018-08-30T10:11:54.013Z,62.21
2018-08-30T10:12:52.569Z,61.81
2018-08-30T10:13:52.618Z,61.64
2018-08-30T10:14:52.556Z,62.74
2018-08-30T10:15:52.664Z,62.07
2018-08-30T10:16:52.516Z,60.36
2018-08-30T10:17:54.058Z,59.44
2018-08-30T10:20:39.960Z,58.40
2018-08-30T10:21:27.516Z,58.61
2018-08-30T10:22:12.544Z,60.03
2018-08-30T10:23:12.532Z,59.03
2018-08-30T10:24:15.614Z,59.16
2018-08-30T10:25:12.510Z,61.27
2018-08-30T10:26:12.782Z,63.07
2018-08-30T10:27:13.355Z,63.00
2018-08-30T10:28:12.447Z,62.70
2018-08-30T10:29:12.489Z,61.90
2018-08-30T10:30:12.400Z,62.30
2018-08-30T10:31:12.383Z,61.50
2018-08-30T10:32:12.412Z,62.03
2018-08-30T10:33:12.453Z,61.83
2018-08-30T10:34:13.645Z,61.86
2018-08-30T10:35:12.383Z,62.03
2018-08-30T10:36:12.365Z,62.83
2018-08-30T10:37:12.344Z,62.83
2018-08-30T10:38:12.331Z,62.10
2018-08-30T10:39:17.213Z,60.69
2018-08-30T10:40:12.727Z,60.57
2018-08-30T10:41:12.297Z,58.79
2018-08-30T10:42:12.270Z,62.27
2018-08-30T10:43:13.302Z,63.84
2018-08-30T10:44:12.246Z,69.23
2018-08-30T10:45:13.926Z,65.09
2018-08-30T10:46:12.272Z,64.86
2018-08-30T10:47:12.225Z,63.06
2018-08-30T10:48:12.229Z,58.62
2018-08-30T10:49:12.200Z,58.62
2018-08-30T10:50:12.221Z,56.72
2018-08-30T10:51:12.238Z,62.12
2018-08-30T10:52:12.286Z,61.52
2018-08-30T10:53:19.051Z,58.45
2018-08-30T10:54:12.144Z,57.68
2018-08-30T10:56:24.769Z,58.11
2018-08-30T10:57:32.090Z,56.60
2018-08-30T10:58:21.023Z,56.43
2018-08-30T10:59:20.932Z,56.63
2018-08-30T11:00:21.053Z,57.66
2018-08-30T11:01:20.904Z,56.52
2018-08-30T11:02:20.890Z,57.80
2018-08-30T11:03:21.560Z,56.60
2018-08-30T11:04:20.921Z,55.57
2018-08-30T11:05:20.866Z,56.57
2018-08-30T11:06:20.856Z,56.05
2018-08-30T11:07:20.835Z,56.24
2018-08-30T11:08:20.936Z,56.85
2018-08-30T11:09:21.307Z,56.85
2018-08-30T11:10:22.364Z,56.02
2018-08-30T11:11:21.540Z,55.22
2018-08-30T11:12:20.908Z,55.52
2018-08-30T11:13:21.018Z,53.32
2018-08-30T11:14:20.953Z,52.74
2018-08-30T11:15:20.783Z,52.34
2018-08-30T11:16:20.790Z,51.62
2018-08-30T11:17:20.843Z,51.62
2018-08-30T11:18:21.073Z,50.94
2018-08-30T11:19:20.763Z,51.94
2018-08-30T11:20:20.873Z,53.02
2018-08-30T11:21:20.814Z,53.22
2018-08-30T11:22:21.637Z,52.89
2018-08-30T11:23:21.676Z,52.99
2018-08-30T11:24:20.671Z,52.59
2018-08-30T11:25:20.644Z,53.19
2018-08-30T11:26:20.700Z,54.10
2018-08-30T11:27:20.626Z,54.06
2018-08-30T11:28:20.821Z,53.69
2018-08-30T11:29:22.366Z,54.62
2018-08-30T11:30:20.675Z,53.52
2018-08-30T11:31:34.856Z,53.12
2018-08-30T11:32:20.584Z,53.34
2018-08-30T11:33:20.579Z,53.97
2018-08-30T11:34:20.547Z,52.67
2018-08-30T11:35:20.668Z,52.97
2018-08-30T11:36:20.570Z,51.97
2018-08-30T11:37:20.594Z,51.87
2018-08-30T11:38:20.559Z,52.57
2018-08-30T11:39:20.498Z,53.07
2018-08-30T11:40:25.394Z,53.19
2018-08-30T11:41:20.486Z,54.10
2018-08-30T11:42:20.559Z,54.50
2018-08-30T11:43:20.811Z,54.10
2018-08-30T11:44:20.486Z,55.10
2018-08-30T11:45:21.367Z,55.17
2018-08-30T11:46:20.440Z,54.67
2018-08-30T11:47:20.509Z,54.24
2018-08-30T11:48:20.409Z,53.64
2018-08-30T11:49:20.378Z,52.62
2018-08-30T11:50:20.367Z,52.72
2018-08-30T11:51:20.476Z,52.99
2018-08-30T11:52:20.476Z,51.59
2018-08-30T11:53:20.760Z,51.69
2018-08-30T11:54:20.419Z,51.47
2018-08-30T11:55:20.321Z,49.59
2018-08-30T11:56:20.364Z,48.69
2018-08-30T11:57:20.878Z,48.47
2018-08-30T11:58:20.353Z,49.05
2018-08-30T11:59:20.279Z,48.14
2018-08-30T12:00:20.295Z,47.25
2018-08-30T12:01:20.264Z,47.35
2018-08-30T12:02:20.248Z,47.35
2018-08-30T12:03:20.238Z,47.35
2018-08-30T12:04:23.261Z,47.35
2018-08-30T12:05:20.272Z,46.35
2018-08-30T12:06:20.279Z,46.83
2018-08-30T12:07:20.232Z,48.63
2018-08-30T12:08:20.214Z,48.43
2018-08-30T12:09:20.181Z,48.70
2018-08-30T12:10:20.309Z,49.20
2018-08-30T12:11:20.224Z,48.70
2018-08-30T12:12:20.161Z,48.40
2018-08-30T12:13:20.162Z,48.30
2018-08-30T12:14:20.109Z,47.50
2018-08-30T12:15:20.134Z,48.00
2018-08-30T12:16:20.737Z,48.70
2018-08-30T12:17:20.085Z,50.12
2018-08-30T12:18:21.477Z,49.52
2018-08-30T12:19:20.073Z,48.22
2018-08-30T12:20:20.068Z,48.63
2018-08-30T12:21:20.186Z,50.15
2018-08-30T12:22:20.108Z,47.85
2018-08-30T12:23:20.018Z,48.07
2018-08-30T12:24:20.031Z,48.27
2018-08-30T12:25:20.008Z,47.49
2018-08-30T12:26:19.993Z,48.60
2018-08-30T12:27:20.027Z,49.37
2018-08-30T12:28:20.099Z,50.09
2018-08-30T12:29:19.977Z,49.40
2018-08-30T12:30:19.991Z,49.07
2018-08-30T12:31:20.072Z,48.47
2018-08-30T12:32:20.035Z,48.75
2018-08-30T12:33:20.173Z,47.65
2018-08-30T12:34:20.077Z,47.95
2018-08-30T12:35:20.035Z,47.95
2018-08-30T12:36:19.993Z,48.67
2018-08-30T12:39:02.963Z,49.17
2018-08-30T12:40:02.909Z,48.67
2018-08-30T12:41:07.457Z,49.59
2018-08-30T12:43:13.007Z,47.67
2018-08-30T12:44:12.751Z,49.17
2018-08-30T12:45:12.871Z,49.55
2018-08-30T12:46:12.506Z,48.75
2018-08-30T12:47:13.129Z,48.35
2018-08-30T12:48:12.454Z,47.75
2018-08-30T12:49:12.486Z,47.65
2018-08-30T12:50:12.557Z,47.22
2018-08-30T12:51:12.506Z,48.35
2018-08-30T12:52:13.078Z,46.35
2018-08-30T12:53:12.526Z,45.65
2018-08-30T12:54:12.511Z,44.83
2018-08-30T12:55:12.554Z,44.43
2018-08-30T12:56:12.542Z,44.03
2018-08-30T12:57:12.494Z,43.43
2018-08-30T12:58:12.811Z,43.93